sensor_id;sensor_type;location;lat;lon;timestamp;pressure;altitude;pressure_sealevel;temperature;humidity
72110;BME280;59983;52.010;5.420;2023-04-29T00:02:22;101491.25;;;9.69;100.00
72110;BME280;59983;52.010;5.420;2023-04-29T00:04:48;101491.59;;;9.67;100.00
72110;BME280;59983;52.010;5.420;2023-04-29T00:07:15;101495.88;;;9.68;100.00
72110;BME280;59983;52.010;5.420;2023-04-29T00:09:42;101495.88;;;9.68;100.00
72110;BME280;59983;52.010;5.420;2023-04-29T00:12:09;101498.13;;;9.75;100.00
72110;BME280;59983;52.010;5.420;2023-04-29T00:14:36;101497.31;;;9.74;100.00
72110;BME280;59983;52.010;5.420;2023-04-29T00:17:02;101492.72;;;9.66;100.00
72110;BME280;59983;52.010;5.420;2023-04-29T00:19:29;101506.06;;;9.71;100.00
72110;BME280;59983;52.010;5.420;2023-04-29T00:21:56;101496.69;;;9.69;100.00
72110;BME280;59983;52.010;5.420;2023-04-29T00:24:23;101506.88;;;9.72;100.00
72110;BME280;59983;52.010;5.420;2023-04-29T00:26:49;101501.78;;;9.70;100.00
72110;BME280;59983;52.010;5.420;2023-04-29T00:29:16;101512.13;;;9.68;100.00
72110;BME280;59983;52.010;5.420;2023-04-29T00:31:42;101515.03;;;9.63;100.00
72110;BME280;59983;52.010;5.420;2023-04-29T00:34:09;101515.03;;;9.63;100.00
72110;BME280;59983;52.010;5.420;2023-04-29T00:36:35;101522.03;;;9.73;100.00
72110;BME280;59983;52.010;5.420;2023-04-29T00:39:02;101523.63;;;9.74;100.00
72110;BME280;59983;52.010;5.420;2023-04-29T00:41:29;101520.41;;;9.72;100.00
72110;BME280;59983;52.010;5.420;2023-04-29T00:43:56;101524.25;;;9.71;100.00
72110;BME280;59983;52.010;5.420;2023-04-29T00:46:23;101523.78;;;9.69;100.00
72110;BME280;59983;52.010;5.420;2023-04-29T00:48:49;101524.56;;;9.69;100.00
72110;BME280;59983;52.010;5.420;2023-04-29T00:51:17;101522.03;;;9.64;100.00
72110;BME280;59983;52.010;5.420;2023-04-29T00:53:43;101526.81;;;9.67;100.00
72110;BME280;59983;52.010;5.420;2023-04-29T00:56:10;101532.56;;;9.65;100.00
72110;BME280;59983;52.010;5.420;2023-04-29T00:58:40;101526.16;;;9.61;100.00
72110;BME280;59983;52.010;5.420;2023-04-29T01:01:11;101528.41;;;9.59;100.00
72110;BME280;59983;52.010;5.420;2023-04-29T01:03:38;101521.25;;;9.55;100.00
72110;BME280;59983;52.010;5.420;2023-04-29T01:09:26;101538.28;;;9.64;100.00
72110;BME280;59983;52.010;5.420;2023-04-29T01:12:14;101541.94;;;9.68;100.00
72110;BME280;59983;52.010;5.420;2023-04-29T01:14:51;101550.38;;;9.67;100.00
72110;BME280;59983;52.010;5.420;2023-04-29T01:17:22;101553.91;;;9.67;100.00
72110;BME280;59983;52.010;5.420;2023-04-29T01:19:54;101559.78;;;9.69;100.00
72110;BME280;59983;52.010;5.420;2023-04-29T01:22:22;101554.38;;;9.69;100.00
72110;BME280;59983;52.010;5.420;2023-04-29T01:24:49;101554.53;;;9.64;100.00
72110;BME280;59983;52.010;5.420;2023-04-29T01:30:09;101566.66;;;9.67;100.00
72110;BME280;59983;52.010;5.420;2023-04-29T01:32:45;101563.94;;;9.67;100.00
72110;BME280;59983;52.010;5.420;2023-04-29T01:35:29;101564.88;;;9.71;100.00
72110;BME280;59983;52.010;5.420;2023-04-29T01:41:09;101563.44;;;9.82;100.00
72110;BME280;59983;52.010;5.420;2023-04-29T01:43:38;101566.63;;;9.84;100.00
72110;BME280;59983;52.010;5.420;2023-04-29T01:46:05;101568.69;;;9.87;100.00
72110;BME280;59983;52.010;5.420;2023-04-29T01:48:35;101570.47;;;9.74;100.00
72110;BME280;59983;52.010;5.420;2023-04-29T01:51:02;101579.72;;;9.73;100.00
72110;BME280;59983;52.010;5.420;2023-04-29T01:53:30;101584.34;;;9.73;100.00
72110;BME280;59983;52.010;5.420;2023-04-29T01:55:58;101578.41;;;9.71;100.00
72110;BME280;59983;52.010;5.420;2023-04-29T01:58:24;101574.91;;;9.70;100.00
72110;BME280;59983;52.010;5.420;2023-04-29T02:00:51;101580.00;;;9.72;100.00
72110;BME280;59983;52.010;5.420;2023-04-29T02:03:17;101586.88;;;9.69;100.00
72110;BME280;59983;52.010;5.420;2023-04-29T02:05:44;101583.22;;;9.74;100.00
72110;BME280;59983;52.010;5.420;2023-04-29T02:08:11;101586.25;;;9.72;100.00
72110;BME280;59983;52.010;5.420;2023-04-29T02:10:38;101595.31;;;9.68;100.00
72110;BME280;59983;52.010;5.420;2023-04-29T02:13:04;101586.88;;;9.69;100.00
72110;BME280;59983;52.010;5.420;2023-04-29T02:15:31;101591.81;;;9.67;100.00
72110;BME280;59983;52.010;5.420;2023-04-29T02:17:57;101593.56;;;9.72;100.00
72110;BME280;59983;52.010;5.420;2023-04-29T02:20:24;101595.47;;;9.71;100.00
72110;BME280;59983;52.010;5.420;2023-04-29T02:22:50;101596.56;;;9.79;100.00
72110;BME280;59983;52.010;5.420;2023-04-29T02:25:17;101597.69;;;9.78;100.00
72110;BME280;59983;52.010;5.420;2023-04-29T02:27:43;101601.84;;;9.84;100.00
72110;BME280;59983;52.010;5.420;2023-04-29T02:30:10;101606.28;;;9.80;100.00
72110;BME280;59983;52.010;5.420;2023-04-29T02:32:37;101610.13;;;9.79;100.00
72110;BME280;59983;52.010;5.420;2023-04-29T02:35:05;101610.91;;;9.79;100.00
72110;BME280;59983;52.010;5.420;2023-04-29T02:37:32;101611.41;;;9.81;100.00
72110;BME280;59983;52.010;5.420;2023-04-29T02:39:58;101616.84;;;9.81;100.00
72110;BME280;59983;52.010;5.420;2023-04-29T02:42:25;101619.69;;;9.85;100.00
72110;BME280;59983;52.010;5.420;2023-04-29T02:44:51;101624.97;;;9.81;100.00
72110;BME280;59983;52.010;5.420;2023-04-29T02:47:18;101627.81;;;9.85;100.00
72110;BME280;59983;52.010;5.420;2023-04-29T02:49:44;101632.44;;;9.84;100.00
72110;BME280;59983;52.010;5.420;2023-04-29T02:52:11;101627.97;;;9.88;100.00
72110;BME280;59983;52.010;5.420;2023-04-29T02:54:38;101635.47;;;9.91;100.00
72110;BME280;59983;52.010;5.420;2023-04-29T02:57:04;101630.06;;;9.91;100.00
72110;BME280;59983;52.010;5.420;2023-04-29T02:59:31;101641.69;;;9.92;100.00
72110;BME280;59983;52.010;5.420;2023-04-29T03:01:57;101630.19;;;9.86;100.00
72110;BME280;59983;52.010;5.420;2023-04-29T03:04:24;101640.25;;;9.86;100.00
72110;BME280;59983;52.010;5.420;2023-04-29T03:06:50;101641.03;;;9.86;100.00
72110;BME280;59983;52.010;5.420;2023-04-29T03:09:17;101644.06;;;9.85;100.00
72110;BME280;59983;52.010;5.420;2023-04-29T03:11:43;101643.44;;;9.88;100.00
72110;BME280;59983;52.010;5.420;2023-04-29T03:14:10;101648.56;;;9.89;100.00
72110;BME280;59983;52.010;5.420;2023-04-29T03:16:37;101659.22;;;9.94;100.00
72110;BME280;59983;52.010;5.420;2023-04-29T03:19:03;101657.75;;;9.97;100.00
72110;BME280;59983;52.010;5.420;2023-04-29T03:21:30;101662.06;;;9.98;100.00
72110;BME280;59983;52.010;5.420;2023-04-29T03:23:56;101661.91;;;9.94;100.00
72110;BME280;59983;52.010;5.420;2023-04-29T03:26:23;101659.53;;;9.84;100.00
72110;BME280;59983;52.010;5.420;2023-04-29T03:28:50;101659.88;;;9.83;100.00
72110;BME280;59983;52.010;5.420;2023-04-29T03:31:17;101658.28;;;9.82;100.00
72110;BME280;59983;52.010;5.420;2023-04-29T03:33:44;101662.41;;;9.79;100.00
72110;BME280;59983;52.010;5.420;2023-04-29T03:36:10;101663.38;;;9.83;100.00
72110;BME280;59983;52.010;5.420;2023-04-29T03:38:37;101665.44;;;9.78;100.00
72110;BME280;59983;52.010;5.420;2023-04-29T03:41:04;101661.13;;;9.77;100.00
72110;BME280;59983;52.010;5.420;2023-04-29T03:43:30;101660.97;;;9.73;100.00
72110;BME280;59983;52.010;5.420;2023-04-29T03:45:57;101665.44;;;9.78;100.00
72110;BME280;59983;52.010;5.420;2023-04-29T03:48:24;101670.22;;;9.81;100.00
72110;BME280;59983;52.010;5.420;2023-04-29T03:50:50;101669.72;;;9.87;100.00
72110;BME280;59983;52.010;5.420;2023-04-29T03:53:17;101669.25;;;9.94;100.00
72110;BME280;59983;52.010;5.420;2023-04-29T03:55:43;101671.66;;;9.87;100.00
72110;BME280;59983;52.010;5.420;2023-04-29T03:58:10;101672.75;;;9.86;100.00
72110;BME280;59983;52.010;5.420;2023-04-29T04:00:36;101681.88;;;9.81;100.00
72110;BME280;59983;52.010;5.420;2023-04-29T04:03:03;101675.00;;;9.84;100.00
72110;BME280;59983;52.010;5.420;2023-04-29T04:05:31;101674.69;;;9.94;100.00
72110;BME280;59983;52.010;5.420;2023-04-29T04:07:57;101676.91;;;9.83;100.00
72110;BME280;59983;52.010;5.420;2023-04-29T04:10:25;101676.75;;;9.88;100.00
72110;BME280;59983;52.010;5.420;2023-04-29T04:12:53;101684.56;;;9.90;100.00
72110;BME280;59983;52.010;5.420;2023-04-29T04:15:20;101689.03;;;9.94;100.00
72110;BME280;59983;52.010;5.420;2023-04-29T04:17:47;101686.63;;;9.84;100.00
72110;BME280;59983;52.010;5.420;2023-04-29T04:20:14;101702.09;;;9.92;100.00
72110;BME280;59983;52.010;5.420;2023-04-29T04:22:41;101697.28;;;9.98;100.00
72110;BME280;59983;52.010;5.420;2023-04-29T04:25:08;101707.03;;;9.99;100.00
72110;BME280;59983;52.010;5.420;2023-04-29T04:27:35;101702.25;;;9.96;100.00
72110;BME280;59983;52.010;5.420;2023-04-29T04:30:01;101702.25;;;9.96;100.00
72110;BME280;59983;52.010;5.420;2023-04-29T04:32:28;101705.13;;;10.00;100.00
72110;BME280;59983;52.010;5.420;2023-04-29T04:34:54;101714.69;;;9.97;100.00
72110;BME280;59983;52.010;5.420;2023-04-29T04:37:21;101714.69;;;9.97;100.00
72110;BME280;59983;52.010;5.420;2023-04-29T04:39:47;101712.63;;;9.94;100.00
72110;BME280;59983;52.010;5.420;2023-04-29T04:42:14;101714.69;;;9.97;100.00
72110;BME280;59983;52.010;5.420;2023-04-29T04:44:40;101728.56;;;9.96;100.00
72110;BME280;59983;52.010;5.420;2023-04-29T04:47:07;101735.41;;;9.93;100.00
72110;BME280;59983;52.010;5.420;2023-04-29T04:49:33;101731.72;;;9.89;100.00
72110;BME280;59983;52.010;5.420;2023-04-29T04:52:00;101733.19;;;9.95;100.00
72110;BME280;59983;52.010;5.420;2023-04-29T04:54:26;101739.25;;;10.01;100.00
72110;BME280;59983;52.010;5.420;2023-04-29T04:56:53;101752.47;;;9.93;100.00
72110;BME280;59983;52.010;5.420;2023-04-29T04:59:20;101752.47;;;10.02;100.00
72110;BME280;59983;52.010;5.420;2023-04-29T05:01:46;101757.56;;;10.04;100.00
72110;BME280;59983;52.010;5.420;2023-04-29T05:04:13;101753.75;;;10.05;100.00
72110;BME280;59983;52.010;5.420;2023-04-29T05:06:41;101765.56;;;10.09;100.00
72110;BME280;59983;52.010;5.420;2023-04-29T05:09:07;101759.34;;;10.08;100.00
72110;BME280;59983;52.010;5.420;2023-04-29T05:11:34;101771.31;;;10.16;100.00
72110;BME280;59983;52.010;5.420;2023-04-29T05:14:00;101776.09;;;10.19;100.00
72110;BME280;59983;52.010;5.420;2023-04-29T05:16:26;101772.25;;;10.20;100.00
72110;BME280;59983;52.010;5.420;2023-04-29T05:18:53;101765.88;;;10.16;100.00
72110;BME280;59983;52.010;5.420;2023-04-29T05:21:20;101773.38;;;10.19;100.00
72110;BME280;59983;52.010;5.420;2023-04-29T05:23:46;101776.44;;;10.26;100.00
72110;BME280;59983;52.010;5.420;2023-04-29T05:26:12;101767.81;;;10.33;100.00
72110;BME280;59983;52.010;5.420;2023-04-29T05:28:39;101781.22;;;10.38;100.00
72110;BME280;59983;52.010;5.420;2023-04-29T05:31:06;101785.69;;;10.34;100.00
72110;BME280;59983;52.010;5.420;2023-04-29T05:33:32;101784.25;;;10.36;100.00
72110;BME280;59983;52.010;5.420;2023-04-29T05:35:59;101783.28;;;10.41;100.00
72110;BME280;59983;52.010;5.420;2023-04-29T05:38:25;101794.75;;;10.46;100.00
72110;BME280;59983;52.010;5.420;2023-04-29T05:40:55;101794.13;;;10.49;100.00
72110;BME280;59983;52.010;5.420;2023-04-29T05:43:21;101802.75;;;10.52;100.00
72110;BME280;59983;52.010;5.420;2023-04-29T05:45:48;101793.97;;;10.46;100.00
72110;BME280;59983;52.010;5.420;2023-04-29T05:48:15;101805.63;;;10.46;100.00
72110;BME280;59983;52.010;5.420;2023-04-29T05:50:41;101811.50;;;10.48;100.00
72110;BME280;59983;52.010;5.420;2023-04-29T05:53:08;101809.28;;;10.50;100.00
72110;BME280;59983;52.010;5.420;2023-04-29T05:55:35;101814.06;;;10.54;100.00
72110;BME280;59983;52.010;5.420;2023-04-29T05:58:01;101812.16;;;10.63;100.00
72110;BME280;59983;52.010;5.420;2023-04-29T06:00:28;101816.28;;;10.69;100.00
72110;BME280;59983;52.010;5.420;2023-04-29T06:02:54;101813.25;;;10.70;100.00
72110;BME280;59983;52.010;5.420;2023-04-29T06:05:25;101815.66;;;10.72;100.00
72110;BME280;59983;52.010;5.420;2023-04-29T06:07:52;101827.78;;;10.66;100.00
72110;BME280;59983;52.010;5.420;2023-04-29T06:10:19;101824.44;;;10.60;100.00
72110;BME280;59983;52.010;5.420;2023-04-29T06:12:45;101824.59;;;10.72;100.00
72110;BME280;59983;52.010;5.420;2023-04-29T06:15:14;101830.31;;;10.80;100.00
72110;BME280;59983;52.010;5.420;2023-04-29T06:17:41;101831.91;;;10.89;100.00
72110;BME280;59983;52.010;5.420;2023-04-29T06:20:08;101831.25;;;10.92;100.00
72110;BME280;59983;52.010;5.420;2023-04-29T06:22:35;101833.63;;;10.94;100.00
72110;BME280;59983;52.010;5.420;2023-04-29T06:25:01;101841.75;;;11.02;100.00
72110;BME280;59983;52.010;5.420;2023-04-29T06:27:28;101844.44;;;11.11;100.00
72110;BME280;59983;52.010;5.420;2023-04-29T06:29:54;101848.47;;;11.14;100.00
72110;BME280;59983;52.010;5.420;2023-04-29T06:32:21;101853.56;;;11.15;100.00
72110;BME280;59983;52.010;5.420;2023-04-29T06:34:47;101859.63;;;11.12;100.00
72110;BME280;59983;52.010;5.420;2023-04-29T06:37:14;101857.44;;;11.05;100.00
72110;BME280;59983;52.010;5.420;2023-04-29T06:39:40;101859.63;;;11.03;100.00
72110;BME280;59983;52.010;5.420;2023-04-29T06:42:07;101869.88;;;11.06;100.00
72110;BME280;59983;52.010;5.420;2023-04-29T06:44:33;101870.00;;;11.19;100.00
72110;BME280;59983;52.010;5.420;2023-04-29T06:47:00;101885.44;;;11.35;100.00
72110;BME280;59983;52.010;5.420;2023-04-29T06:49:26;101882.53;;;11.49;100.00
72110;BME280;59983;52.010;5.420;2023-04-29T06:51:53;101885.38;;;11.61;100.00
72110;BME280;59983;52.010;5.420;2023-04-29T06:54:19;101882.47;;;11.67;100.00
72110;BME280;59983;52.010;5.420;2023-04-29T06:56:46;101879.56;;;11.72;100.00
72110;BME280;59983;52.010;5.420;2023-04-29T06:59:13;101879.09;;;11.70;99.08
72110;BME280;59983;52.010;5.420;2023-04-29T07:01:40;101889.53;;;11.59;99.56
72110;BME280;59983;52.010;5.420;2023-04-29T07:04:10;101897.53;;;11.55;99.14
72110;BME280;59983;52.010;5.420;2023-04-29T07:06:37;101901.72;;;11.44;98.60
72110;BME280;59983;52.010;5.420;2023-04-29T07:09:03;101911.81;;;11.35;98.72
72110;BME280;59983;52.010;5.420;2023-04-29T07:11:30;101908.47;;;11.29;99.94
72110;BME280;59983;52.010;5.420;2023-04-29T07:13:57;101912.13;;;11.42;99.59
72110;BME280;59983;52.010;5.420;2023-04-29T07:16:23;101923.00;;;11.42;98.36
72110;BME280;59983;52.010;5.420;2023-04-29T07:18:52;101921.56;;;11.36;97.56
72110;BME280;59983;52.010;5.420;2023-04-29T07:21:18;101926.53;;;11.34;98.67
72110;BME280;59983;52.010;5.420;2023-04-29T07:23:45;101927.00;;;11.36;98.64
72110;BME280;59983;52.010;5.420;2023-04-29T07:26:13;101928.09;;;11.44;98.00
72110;BME280;59983;52.010;5.420;2023-04-29T07:28:41;101937.38;;;11.43;97.75
72110;BME280;59983;52.010;5.420;2023-04-29T07:31:08;101942.59;;;11.56;98.05
72110;BME280;59983;52.010;5.420;2023-04-29T07:33:36;101953.13;;;11.67;95.50
72110;BME280;59983;52.010;5.420;2023-04-29T07:36:03;101942.28;;;11.58;94.87
72110;BME280;59983;52.010;5.420;2023-04-29T07:38:29;101960.31;;;11.62;95.92
72110;BME280;59983;52.010;5.420;2023-04-29T07:40:56;101948.66;;;11.62;94.50
72110;BME280;59983;52.010;5.420;2023-04-29T07:43:22;101951.34;;;11.71;95.27
72110;BME280;59983;52.010;5.420;2023-04-29T07:45:49;101946.38;;;11.81;94.20
72110;BME280;59983;52.010;5.420;2023-04-29T07:48:15;101952.38;;;12.04;94.71
72110;BME280;59983;52.010;5.420;2023-04-29T07:50:42;101953.00;;;12.01;92.58
72110;BME280;59983;52.010;5.420;2023-04-29T07:53:09;101960.41;;;11.92;91.83
72110;BME280;59983;52.010;5.420;2023-04-29T07:55:37;101962.34;;;11.74;91.05
72110;BME280;59983;52.010;5.420;2023-04-29T07:58:03;101971.19;;;11.71;92.45
72110;BME280;59983;52.010;5.420;2023-04-29T08:00:30;101964.91;;;11.88;94.39
72110;BME280;59983;52.010;5.420;2023-04-29T08:02:56;101965.97;;;12.04;91.55
72110;BME280;59983;52.010;5.420;2023-04-29T08:05:23;101974.00;;;12.30;90.83
72110;BME280;59983;52.010;5.420;2023-04-29T08:07:51;101967.28;;;12.57;92.12
72110;BME280;59983;52.010;5.420;2023-04-29T08:10:18;101977.59;;;12.72;90.72
72110;BME280;59983;52.010;5.420;2023-04-29T08:12:45;101981.47;;;12.63;87.75
72110;BME280;59983;52.010;5.420;2023-04-29T08:15:11;101981.81;;;12.61;89.57
72110;BME280;59983;52.010;5.420;2023-04-29T08:17:38;101987.53;;;12.68;89.47
72110;BME280;59983;52.010;5.420;2023-04-29T08:20:05;101977.69;;;12.55;87.04
72110;BME280;59983;52.010;5.420;2023-04-29T08:22:33;101975.63;;;12.23;87.28
72110;BME280;59983;52.010;5.420;2023-04-29T08:24:59;101983.47;;;12.24;87.20
72110;BME280;59983;52.010;5.420;2023-04-29T08:27:28;101986.19;;;12.24;86.72
72110;BME280;59983;52.010;5.420;2023-04-29T08:29:54;101987.78;;;12.25;87.60
72110;BME280;59983;52.010;5.420;2023-04-29T08:32:24;101993.50;;;12.32;87.13
72110;BME280;59983;52.010;5.420;2023-04-29T08:34:51;101984.00;;;12.47;88.03
72110;BME280;59983;52.010;5.420;2023-04-29T08:37:18;101986.75;;;12.38;85.06
72110;BME280;59983;52.010;5.420;2023-04-29T08:39:45;101990.84;;;12.24;84.92
72110;BME280;59983;52.010;5.420;2023-04-29T08:42:13;101993.22;;;12.25;84.49
72110;BME280;59983;52.010;5.420;2023-04-29T08:44:40;101993.41;;;12.20;85.88
72110;BME280;59983;52.010;5.420;2023-04-29T08:47:07;101999.09;;;12.36;85.21
72110;BME280;59983;52.010;5.420;2023-04-29T08:49:34;101997.72;;;12.51;84.80
72110;BME280;59983;52.010;5.420;2023-04-29T08:52:03;101998.41;;;12.68;84.81
72110;BME280;59983;52.010;5.420;2023-04-29T08:54:30;102006.50;;;13.27;83.98
72110;BME280;59983;52.010;5.420;2023-04-29T08:56:58;101998.34;;;13.85;83.28
72110;BME280;59983;52.010;5.420;2023-04-29T08:59:27;102000.22;;;14.17;79.82
72110;BME280;59983;52.010;5.420;2023-04-29T09:01:55;101998.59;;;13.92;78.86
72110;BME280;59983;52.010;5.420;2023-04-29T09:04:46;102001.75;;;13.70;79.19
72110;BME280;59983;52.010;5.420;2023-04-29T09:07:15;102010.47;;;13.63;78.57
72110;BME280;59983;52.010;5.420;2023-04-29T09:09:42;102018.44;;;13.35;79.07
72110;BME280;59983;52.010;5.420;2023-04-29T09:12:09;102018.75;;;13.33;79.05
72110;BME280;59983;52.010;5.420;2023-04-29T09:14:36;102019.09;;;13.32;80.04
72110;BME280;59983;52.010;5.420;2023-04-29T09:17:02;102022.50;;;13.29;79.36
72110;BME280;59983;52.010;5.420;2023-04-29T09:19:30;102019.06;;;13.53;80.52
72110;BME280;59983;52.010;5.420;2023-04-29T09:21:58;102014.81;;;13.76;76.18
72110;BME280;59983;52.010;5.420;2023-04-29T09:24:26;102022.34;;;13.79;76.54
72110;BME280;59983;52.010;5.420;2023-04-29T09:26:53;102016.34;;;13.98;78.45
72110;BME280;59983;52.010;5.420;2023-04-29T09:29:20;102028.84;;;14.11;76.56
72110;BME280;59983;52.010;5.420;2023-04-29T09:31:47;102032.94;;;14.05;75.85
72110;BME280;59983;52.010;5.420;2023-04-29T09:34:15;102036.34;;;14.02;77.08
72110;BME280;59983;52.010;5.420;2023-04-29T09:36:51;102032.94;;;14.05;75.94
72110;BME280;59983;52.010;5.420;2023-04-29T09:39:24;102033.28;;;14.16;74.88
72110;BME280;59983;52.010;5.420;2023-04-29T09:46:55;102045.34;;;14.27;72.33
72110;BME280;59983;52.010;5.420;2023-04-29T09:49:27;102041.13;;;14.17;76.37
72110;BME280;59983;52.010;5.420;2023-04-29T09:51:59;102048.41;;;14.38;74.64
72110;BME280;59983;52.010;5.420;2023-04-29T09:54:28;102043.19;;;14.94;74.92
72110;BME280;59983;52.010;5.420;2023-04-29T09:56:56;102046.31;;;15.20;70.83
72110;BME280;59983;52.010;5.420;2023-04-29T09:59:24;102041.06;;;15.43;70.72
72110;BME280;59983;52.010;5.420;2023-04-29T10:01:54;102026.75;;;15.34;70.63
72110;BME280;59983;52.010;5.420;2023-04-29T10:04:23;102033.06;;;15.22;69.21
72110;BME280;59983;52.010;5.420;2023-04-29T10:06:51;102045.00;;;14.90;69.13
72110;BME280;59983;52.010;5.420;2023-04-29T10:09:19;102043.84;;;14.91;72.07
72110;BME280;59983;52.010;5.420;2023-04-29T10:11:48;102041.47;;;14.89;73.56
72110;BME280;59983;52.010;5.420;2023-04-29T10:14:18;102037.47;;;14.99;72.53
72110;BME280;59983;52.010;5.420;2023-04-29T10:17:09;102049.16;;;15.12;70.53
72110;BME280;59983;52.010;5.420;2023-04-29T10:19:58;102051.56;;;15.13;69.28
72110;BME280;59983;52.010;5.420;2023-04-29T10:22:48;102053.16;;;15.14;70.64
72110;BME280;59983;52.010;5.420;2023-04-29T10:25:16;102053.63;;;14.92;66.77
72110;BME280;59983;52.010;5.420;2023-04-29T10:27:44;102058.56;;;14.86;67.32
72110;BME280;59983;52.010;5.420;2023-04-29T10:30:13;102053.56;;;14.64;67.07
72110;BME280;59983;52.010;5.420;2023-04-29T10:32:40;102056.84;;;14.82;70.60
72110;BME280;59983;52.010;5.420;2023-04-29T10:35:18;102058.69;;;15.18;69.21
72110;BME280;59983;52.010;5.420;2023-04-29T10:37:46;102054.59;;;15.52;69.28
72110;BME280;59983;52.010;5.420;2023-04-29T10:40:44;102055.59;;;15.59;65.88
72110;BME280;59983;52.010;5.420;2023-04-29T10:43:12;102064.19;;;15.46;66.49
72110;BME280;59983;52.010;5.420;2023-04-29T10:45:39;102054.22;;;15.38;64.52
72110;BME280;59983;52.010;5.420;2023-04-29T10:48:10;102056.53;;;15.51;64.11
72110;BME280;59983;52.010;5.420;2023-04-29T10:53:14;102055.06;;;15.98;68.03
72110;BME280;59983;52.010;5.420;2023-04-29T10:55:45;102061.84;;;15.88;65.85
72110;BME280;59983;52.010;5.420;2023-04-29T10:58:32;102061.03;;;15.72;66.08
72110;BME280;59983;52.010;5.420;2023-04-29T11:01:00;102062.09;;;15.67;66.60
72110;BME280;59983;52.010;5.420;2023-04-29T11:03:49;102050.22;;;15.91;66.47
72110;BME280;59983;52.010;5.420;2023-04-29T11:06:55;102040.03;;;16.55;67.23
72110;BME280;59983;52.010;5.420;2023-04-29T11:09:26;102041.22;;;16.38;62.36
72110;BME280;59983;52.010;5.420;2023-04-29T11:12:03;102055.06;;;15.98;62.87
72110;BME280;59983;52.010;5.420;2023-04-29T11:14:40;102054.63;;;15.96;61.16
72110;BME280;59983;52.010;5.420;2023-04-29T11:17:12;102058.88;;;15.93;61.47
72110;BME280;59983;52.010;5.420;2023-04-29T11:19:45;102058.59;;;15.98;60.92
72110;BME280;59983;52.010;5.420;2023-04-29T11:24:56;102068.06;;;16.01;62.13
72110;BME280;59983;52.010;5.420;2023-04-29T11:29:57;102059.75;;;15.97;65.03
72110;BME280;59983;52.010;5.420;2023-04-29T11:32:29;102058.25;;;16.00;62.32
72110;BME280;59983;52.010;5.420;2023-04-29T11:35:13;102062.94;;;16.31;62.64
72110;BME280;59983;52.010;5.420;2023-04-29T11:37:41;102058.25;;;16.31;60.53
72110;BME280;59983;52.010;5.420;2023-04-29T11:40:09;102064.53;;;16.00;60.78
72110;BME280;59983;52.010;5.420;2023-04-29T11:42:44;102049.69;;;16.01;60.82
72110;BME280;59983;52.010;5.420;2023-04-29T11:45:11;102056.47;;;16.23;61.75
72110;BME280;59983;52.010;5.420;2023-04-29T11:47:42;102048.34;;;16.58;64.26
72110;BME280;59983;52.010;5.420;2023-04-29T11:50:10;102055.38;;;16.91;62.04
72110;BME280;59983;52.010;5.420;2023-04-29T11:52:38;102046.03;;;16.76;56.55
72110;BME280;59983;52.010;5.420;2023-04-29T11:55:09;102054.69;;;16.62;57.46
72110;BME280;59983;52.010;5.420;2023-04-29T11:57:37;102061.88;;;16.35;56.94
72110;BME280;59983;52.010;5.420;2023-04-29T12:00:09;102056.22;;;16.28;58.44
72110;BME280;59983;52.010;5.420;2023-04-29T12:02:43;102055.00;;;16.26;58.05
72110;BME280;59983;52.010;5.420;2023-04-29T12:05:10;102060.91;;;16.43;60.85
72110;BME280;59983;52.010;5.420;2023-04-29T12:07:39;102057.75;;;17.12;59.21
72110;BME280;59983;52.010;5.420;2023-04-29T12:10:09;102054.81;;;17.59;55.43
72110;BME280;59983;52.010;5.420;2023-04-29T12:12:38;102051.59;;;17.96;58.55
72110;BME280;59983;52.010;5.420;2023-04-29T12:15:07;102052.19;;;18.08;55.32
72110;BME280;59983;52.010;5.420;2023-04-29T12:17:36;102051.56;;;18.19;54.38
72110;BME280;59983;52.010;5.420;2023-04-29T12:20:03;102052.56;;;18.07;54.32
72110;BME280;59983;52.010;5.420;2023-04-29T12:22:31;102046.97;;;18.26;51.62
72110;BME280;59983;52.010;5.420;2023-04-29T12:24:57;102050.09;;;18.02;50.59
72110;BME280;59983;52.010;5.420;2023-04-29T12:27:26;102049.06;;;18.33;53.79
72110;BME280;59983;52.010;5.420;2023-04-29T12:29:52;102049.88;;;18.60;51.20
72110;BME280;59983;52.010;5.420;2023-04-29T12:32:23;102052.03;;;19.00;50.55
72110;BME280;59983;52.010;5.420;2023-04-29T12:34:51;102049.59;;;18.65;49.59
72110;BME280;59983;52.010;5.420;2023-04-29T12:37:20;102050.19;;;18.05;51.64
72110;BME280;59983;52.010;5.420;2023-04-29T12:39:48;102054.81;;;17.59;52.19
72110;BME280;59983;52.010;5.420;2023-04-29T12:42:15;102053.22;;;18.00;52.50
72110;BME280;59983;52.010;5.420;2023-04-29T12:44:46;102054.97;;;18.61;51.74
72110;BME280;59983;52.010;5.420;2023-04-29T12:47:13;102062.16;;;18.92;51.44
72110;BME280;59983;52.010;5.420;2023-04-29T12:49:42;102062.41;;;18.84;49.11
72110;BME280;59983;52.010;5.420;2023-04-29T12:52:09;102056.84;;;18.80;51.40
72110;BME280;59983;52.010;5.420;2023-04-29T12:54:37;102064.75;;;19.12;49.40
72110;BME280;59983;52.010;5.420;2023-04-29T12:57:06;102063.06;;;19.04;47.99
72110;BME280;59983;52.010;5.420;2023-04-29T12:59:33;102055.66;;;18.55;47.70
72110;BME280;59983;52.010;5.420;2023-04-29T13:02:00;102055.63;;;18.51;47.27
72110;BME280;59983;52.010;5.420;2023-04-29T13:04:27;102051.59;;;18.68;50.10
72110;BME280;59983;52.010;5.420;2023-04-29T13:06:54;102058.41;;;18.55;49.75
72110;BME280;59983;52.010;5.420;2023-04-29T13:09:25;102062.75;;;18.29;50.81
72110;BME280;59983;52.010;5.420;2023-04-29T13:11:52;102065.16;;;18.34;51.50
72110;BME280;59983;52.010;5.420;2023-04-29T13:14:19;102065.19;;;18.61;50.85
72110;BME280;59983;52.010;5.420;2023-04-29T13:16:45;102064.28;;;18.76;51.94